Time;durP1;ratioP1;P1;durP2;ratioP2;P2;SDS_P1;SDS_P2;PMS_P1;PMS_P2;Temp;Humidity;BMP_temperature;BMP_pressure;BME280_temperature;BME280_humidity;BME280_pressure;Samples;Min_cycle;Max_cycle;Signal;HPM_P1;HPM_P2
2022/04/28 03:02:39;;;;;;;17.00;15.40;;;3.10;99.90;;;;;;5009446;28;20220;-73
2022/04/28 03:05:05;;;;;;;17.23;15.17;;;3.10;99.90;;;;;;5013157;28;20176;-72
2022/04/28 03:13:00;;;;;;;13.90;12.70;;;3.10;99.90;;;;;;5049244;22;20230;-71
2022/04/28 03:15:26;;;;;;;14.87;13.43;;;3.10;99.90;;;;;;5053098;28;20175;-71
2022/04/28 03:17:52;;;;;;;15.43;14.07;;;3.10;99.90;;;;;;5035001;28;20179;-71
2022/04/28 03:20:18;;;;;;;15.43;14.03;;;3.00;99.90;;;;;;5038197;28;20659;-72
2022/04/28 03:22:43;;;;;;;14.37;13.17;;;3.10;99.90;;;;;;5059003;28;20236;-73
2022/04/28 03:25:10;;;;;;;15.43;13.97;;;3.00;99.90;;;;;;5041141;28;20188;-72
2022/04/28 03:27:36;;;;;;;16.47;14.77;;;3.00;99.90;;;;;;5056581;28;20185;-72
2022/04/28 03:30:03;;;;;;;16.00;14.60;;;3.00;99.90;;;;;;5037324;28;20185;-72
2022/04/28 03:32:29;;;;;;;17.17;15.60;;;3.00;99.90;;;;;;5034633;28;20700;-72
2022/04/28 03:34:54;;;;;;;14.77;13.60;;;2.90;99.90;;;;;;5053091;28;20178;-71
2022/04/28 03:37:20;;;;;;;15.97;14.60;;;2.90;99.90;;;;;;5052173;28;20185;-72
2022/04/28 03:39:46;;;;;;;15.60;14.00;;;2.90;99.90;;;;;;5052192;28;20254;-72
2022/04/28 03:42:12;;;;;;;17.27;15.77;;;2.90;99.90;;;;;;5052548;28;20206;-72
2022/04/28 03:44:37;;;;;;;22.73;21.03;;;2.90;99.90;;;;;;5052591;28;20193;-72
2022/04/28 03:47:03;;;;;;;16.80;15.40;;;2.90;99.90;;;;;;5052576;28;20641;-72
2022/04/28 03:49:29;;;;;;;15.77;14.17;;;3.00;99.90;;;;;;5052206;28;20559;-72
2022/04/28 03:51:55;;;;;;;20.00;18.40;;;3.00;99.90;;;;;;5052543;28;20193;-72
2022/04/28 03:54:21;;;;;;;18.20;16.70;;;3.00;99.90;;;;;;5052537;28;20621;-72
2022/04/28 03:56:47;;;;;;;16.90;15.40;;;2.90;99.90;;;;;;5034250;28;20217;-72
2022/04/28 03:59:13;;;;;;;15.57;14.17;;;2.90;99.90;;;;;;5052137;28;20186;-72
2022/04/28 04:01:39;;;;;;;15.70;14.10;;;2.80;99.90;;;;;;5052204;28;20211;-71
2022/04/28 04:04:05;;;;;;;15.37;14.07;;;2.80;99.90;;;;;;5052113;28;20209;-72
2022/04/28 04:06:31;;;;;;;17.30;13.73;;;2.80;99.90;;;;;;5034592;28;20182;-72
2022/04/28 04:08:57;;;;;;;15.57;14.17;;;2.80;99.90;;;;;;5035572;28;20204;-72
2022/04/28 04:11:23;;;;;;;15.67;14.17;;;2.90;99.90;;;;;;5052251;28;20185;-72
2022/04/28 04:13:49;;;;;;;14.73;13.33;;;2.90;99.90;;;;;;5051798;28;20228;-72
2022/04/28 04:16:15;;;;;;;17.53;14.23;;;2.90;99.90;;;;;;5030900;28;20190;-71
2022/04/28 04:18:42;;;;;;;14.07;12.77;;;2.90;99.90;;;;;;5032999;28;20228;-73
2022/04/28 04:21:08;;;;;;;16.60;13.37;;;2.90;99.90;;;;;;5051841;28;20677;-74
2022/04/28 04:23:34;;;;;;;15.73;14.33;;;3.00;99.90;;;;;;5033700;28;20209;-73
2022/04/28 04:26:01;;;;;;;15.00;13.60;;;3.00;99.90;;;;;;5051437;28;20225;-74
2022/04/28 04:28:27;;;;;;;17.20;14.33;;;3.10;99.90;;;;;;5049835;28;20561;-74
2022/04/28 04:33:37;;;;;;;16.70;15.10;;;3.20;99.90;;;;;;5049940;28;20569;-73
2022/04/28 04:36:04;;;;;;;31.80;29.50;;;3.20;99.90;;;;;;5030582;28;20197;-73
2022/04/28 04:38:30;;;;;;;18.63;16.63;;;3.20;99.90;;;;;;5051033;28;20278;-74
2022/04/28 04:40:56;;;;;;;17.27;15.63;;;3.20;99.90;;;;;;5033487;28;20289;-74
2022/04/28 04:43:22;;;;;;;26.00;24.00;;;3.30;99.90;;;;;;5051405;28;20361;-73
2022/04/28 04:45:48;;;;;;;19.63;18.07;;;3.40;99.90;;;;;;5051540;28;20181;-74
2022/04/28 04:48:14;;;;;;;19.03;17.43;;;3.40;99.90;;;;;;5033212;28;20192;-73
2022/04/28 04:50:40;;;;;;;16.03;14.60;;;3.50;99.90;;;;;;5050704;28;20281;-74
2022/04/28 04:53:06;;;;;;;19.60;15.10;;;3.50;99.90;;;;;;5051029;28;20240;-73
2022/04/28 04:55:39;;;;;;;19.93;17.50;;;3.60;99.90;;;;;;5051202;28;20184;-74
2022/04/28 04:58:06;;;;;;;20.43;18.70;;;3.70;99.90;;;;;;5050658;28;20190;-74
2022/04/28 05:00:32;;;;;;;21.57;19.73;;;3.90;99.90;;;;;;5033171;28;20678;-71
2022/04/28 05:02:57;;;;;;;16.67;15.00;;;3.90;99.90;;;;;;5033162;28;20259;-71
2022/04/28 05:05:23;;;;;;;16.37;14.57;;;4.00;99.90;;;;;;5032319;28;20614;-72
2022/04/28 05:07:49;;;;;;;13.20;11.90;;;4.20;99.90;;;;;;5050799;28;20196;-71
2022/04/28 05:10:15;;;;;;;15.07;13.60;;;4.40;99.90;;;;;;5051120;28;20214;-71
2022/04/28 05:12:41;;;;;;;16.80;15.00;;;4.80;99.90;;;;;;5050745;28;20175;-71
2022/04/28 05:15:07;;;;;;;16.70;15.30;;;5.20;99.90;;;;;;5051026;28;20181;-72
2022/04/28 05:17:34;;;;;;;16.50;15.10;;;5.80;99.90;;;;;;5050591;28;20268;-69
2022/04/28 05:20:00;;;;;;;16.37;14.97;;;6.40;99.90;;;;;;5050681;28;20197;-70
2022/04/28 05:22:26;;;;;;;16.27;14.87;;;7.00;99.90;;;;;;5050754;28;20222;-70
2022/04/28 05:24:52;;;;;;;14.30;12.87;;;7.30;99.90;;;;;;5050953;28;20182;-70
2022/04/28 05:27:18;;;;;;;15.90;14.77;;;7.70;99.90;;;;;;5032942;28;20661;-70
2022/04/28 05:29:44;;;;;;;17.80;16.17;;;8.10;99.90;;;;;;5050792;28;20634;-70
2022/04/28 05:32:09;;;;;;;14.80;13.37;;;8.50;99.90;;;;;;5050812;28;20206;-69
2022/04/28 05:34:35;;;;;;;14.17;12.87;;;8.90;99.90;;;;;;5050802;28;20510;-70
2022/04/28 05:37:01;;;;;;;13.40;12.20;;;9.20;99.90;;;;;;5032619;28;20182;-70
2022/04/28 05:39:28;;;;;;;13.33;12.00;;;9.60;99.90;;;;;;5050818;28;20308;-71
2022/04/28 05:41:55;;;;;;;12.60;11.50;;;10.00;99.90;;;;;;5050685;28;20624;-71
2022/04/28 05:47:07;;;;;;;11.40;10.50;;;10.50;99.90;;;;;;5050473;28;20178;-70
2022/04/28 05:49:33;;;;;;;10.67;9.77;;;10.80;99.90;;;;;;5032806;28;20227;-70
2022/04/28 05:52:00;;;;;;;14.40;13.30;;;11.10;99.90;;;;;;5032702;28;20188;-71
2022/04/28 05:54:26;;;;;;;11.57;10.60;;;11.40;99.90;;;;;;5032820;28;20693;-70
2022/04/28 05:56:52;;;;;;;13.23;12.17;;;11.70;99.90;;;;;;5050408;28;20708;-71
2022/04/28 05:59:17;;;;;;;14.20;13.00;;;11.80;99.90;;;;;;5050732;28;20215;-70
2022/04/28 06:01:43;;;;;;;12.00;10.97;;;12.10;99.90;;;;;;5052243;28;20219;-71
2022/04/28 06:04:09;;;;;;;10.43;9.63;;;12.40;99.90;;;;;;5057338;28;20637;-70
2022/04/28 06:06:36;;;;;;;10.70;9.70;;;12.80;99.90;;;;;;5039960;28;20186;-70
2022/04/28 06:09:02;;;;;;;10.37;9.47;;;13.00;99.90;;;;;;5037095;28;20216;-70
2022/04/28 06:11:27;;;;;;;9.83;8.93;;;12.90;99.90;;;;;;5055475;28;20190;-70
2022/04/28 06:13:53;;;;;;;10.50;9.50;;;13.10;99.90;;;;;;5038005;28;20313;-69
2022/04/28 06:16:19;;;;;;;11.10;10.00;;;13.40;99.90;;;;;;5054385;28;20237;-70
2022/04/28 06:18:45;;;;;;;10.47;9.60;;;13.50;99.90;;;;;;5053910;28;20641;-70
2022/04/28 06:21:10;;;;;;;14.00;12.73;;;13.60;99.90;;;;;;5036452;28;20582;-70
2022/04/28 06:23:36;;;;;;;15.43;14.23;;;13.90;99.90;;;;;;5054128;28;20636;-70
2022/04/28 06:26:02;;;;;;;20.30;18.87;;;14.00;99.90;;;;;;5054056;28;20187;-70
2022/04/28 06:28:28;;;;;;;16.13;14.80;;;14.30;99.90;;;;;;5035710;28;20183;-70
2022/04/28 06:30:55;;;;;;;16.80;15.40;;;14.50;99.90;;;;;;5053972;28;20190;-70
2022/04/28 06:33:20;;;;;;;12.13;11.13;;;14.50;99.90;;;;;;5053868;28;20224;-70
2022/04/28 06:35:46;;;;;;;11.87;10.87;;;14.80;99.90;;;;;;5053880;28;20182;-70
2022/04/28 06:38:13;;;;;;;12.50;11.53;;;15.10;99.90;;;;;;5035703;28;20220;-70
2022/04/28 06:40:39;;;;;;;13.33;11.90;;;15.20;99.90;;;;;;5054120;28;20661;-70
2022/04/28 06:43:05;;;;;;;12.87;11.77;;;15.20;99.90;;;;;;5035770;28;20194;-70
2022/04/28 06:45:30;;;;;;;11.33;10.50;;;15.50;99.90;;;;;;5053716;28;20184;-70
2022/04/28 06:47:56;;;;;;;10.87;9.90;;;15.60;99.90;;;;;;5053373;28;20261;-70
2022/04/28 06:50:22;;;;;;;12.37;11.03;;;15.50;99.90;;;;;;5053515;28;20174;-69
2022/04/28 06:52:48;;;;;;;11.37;10.40;;;15.80;99.90;;;;;;5053534;28;20757;-70
2022/04/28 06:55:14;;;;;;;12.27;11.37;;;16.10;99.90;;;;;;5036030;28;20210;-70
2022/04/28 06:57:40;;;;;;;12.13;11.03;;;16.20;99.90;;;;;;5053895;28;20642;-70
2022/04/28 07:00:07;;;;;;;11.00;10.00;;;16.30;99.90;;;;;;5037121;28;20262;-70
2022/04/28 07:02:34;;;;;;;10.70;9.80;;;16.50;99.90;;;;;;5035648;28;20202;-70
2022/04/28 07:04:59;;;;;;;9.87;9.07;;;17.10;99.90;;;;;;5053202;28;20182;-71
2022/04/28 07:07:25;;;;;;;11.63;9.30;;;17.20;99.90;;;;;;5052846;28;20187;-71
2022/04/28 07:09:51;;;;;;;9.47;8.57;;;17.30;99.90;;;;;;5053174;28;20662;-70
2022/04/28 07:12:17;;;;;;;10.20;9.30;;;17.50;99.90;;;;;;5035303;28;20268;-70
2022/04/28 07:14:45;;;;;;;9.80;8.93;;;17.60;99.90;;;;;;5052777;28;20241;-70
2022/04/28 07:17:11;;;;;;;10.97;9.97;;;17.80;99.90;;;;;;5035107;28;20202;-70
2022/04/28 07:19:37;;;;;;;10.07;9.20;;;18.00;99.90;;;;;;5035231;28;20221;-70
2022/04/28 07:22:05;;;;;;;10.43;9.63;;;17.80;99.90;;;;;;5035127;28;20300;-70
2022/04/28 07:24:32;;;;;;;10.83;9.87;;;17.80;99.90;;;;;;5052986;28;20609;-70
2022/04/28 07:26:58;;;;;;;11.07;10.03;;;18.00;99.90;;;;;;5035003;28;20810;-70
2022/04/28 07:29:24;;;;;;;10.07;9.30;;;18.00;99.90;;;;;;5052815;28;20178;-71
2022/04/28 07:31:52;;;;;;;9.77;9.07;;;18.00;99.90;;;;;;5053127;28;20178;-70
2022/04/28 07:34:17;;;;;;;10.23;9.33;;;18.30;99.90;;;;;;5052824;28;20225;-70
2022/04/28 07:36:43;;;;;;;9.97;9.27;;;18.80;99.50;;;;;;5052595;28;20189;-70
2022/04/28 07:39:09;;;;;;;12.40;10.63;;;19.10;96.60;;;;;;5034625;28;20673;-70
2022/04/28 07:41:34;;;;;;;16.03;15.00;;;19.30;97.50;;;;;;5034762;28;20579;-70
2022/04/28 07:44:00;;;;;;;16.63;15.43;;;19.60;96.90;;;;;;5034953;28;20704;-71
2022/04/28 07:46:26;;;;;;;15.87;14.67;;;19.40;94.80;;;;;;5052873;28;20267;-70
2022/04/28 07:48:52;;;;;;;16.17;15.07;;;19.30;94.90;;;;;;5034373;28;20182;-71
2022/04/28 07:51:18;;;;;;;15.40;14.27;;;19.30;95.10;;;;;;5052867;28;20182;-70
2022/04/28 07:53:43;;;;;;;11.87;10.90;;;19.60;94.60;;;;;;5052386;28;20662;-70
2022/04/28 07:56:17;;;;;;;15.17;14.00;;;19.30;93.40;;;;;;5052438;28;20599;-70
2022/04/28 07:58:44;;;;;;;16.50;15.30;;;19.10;95.10;;;;;;5052193;28;20276;-70
2022/04/28 08:01:11;;;;;;;12.63;11.67;;;19.70;94.30;;;;;;5034804;28;20210;-70
2022/04/28 08:03:37;;;;;;;10.93;10.13;;;19.90;92.30;;;;;;5052153;28;20221;-70
2022/04/28 08:06:03;;;;;;;11.80;11.00;;;19.80;92.10;;;;;;5034474;28;20182;-70
2022/04/28 08:08:29;;;;;;;11.17;10.37;;;19.60;90.60;;;;;;5034055;28;20188;-70
2022/04/28 08:10:56;;;;;;;11.80;11.00;;;19.10;91.60;;;;;;5034281;28;20175;-70
2022/04/28 08:13:21;;;;;;;12.17;11.20;;;18.80;91.50;;;;;;5033795;28;20267;-71
2022/04/28 08:15:47;;;;;;;10.43;9.73;;;19.00;91.40;;;;;;5051463;28;20642;-71
2022/04/28 08:18:13;;;;;;;13.43;12.33;;;19.50;90.50;;;;;;5051027;28;20186;-71
2022/04/28 08:20:40;;;;;;;18.27;17.23;;;20.10;86.30;;;;;;5051509;28;20646;-71
2022/04/28 08:23:07;;;;;;;22.50;21.17;;;20.20;83.90;;;;;;5033639;28;20202;-71
2022/04/28 08:25:33;;;;;;;18.53;17.53;;;20.30;82.00;;;;;;5051049;28;20185;-71
2022/04/28 08:27:59;;;;;;;21.30;20.10;;;20.60;79.80;;;;;;5051379;28;20642;-71
2022/04/28 08:30:25;;;;;;;26.80;25.17;;;20.50;80.80;;;;;;5052077;28;20182;-71
2022/04/28 08:32:51;;;;;;;18.70;17.60;;;20.20;82.20;;;;;;5055596;28;20681;-72
2022/04/28 08:35:17;;;;;;;19.47;18.33;;;20.50;80.40;;;;;;5054477;28;20584;-71
2022/04/28 08:37:43;;;;;;;7.50;6.90;;;20.40;79.90;;;;;;5052724;28;20185;-70
2022/04/28 08:40:09;;;;;;;12.17;11.30;;;19.90;69.00;;;;;;5051637;28;20174;-71
2022/04/28 08:42:36;;;;;;;19.83;18.60;;;19.50;71.30;;;;;;5051429;28;20606;-71
2022/04/28 08:45:03;;;;;;;14.37;13.47;;;19.70;76.60;;;;;;5034020;28;20174;-71
2022/04/28 08:47:30;;;;;;;12.40;11.67;;;20.10;71.60;;;;;;5051495;28;20202;-71
2022/04/28 08:49:55;;;;;;;12.00;11.03;;;20.30;69.70;;;;;;5053130;28;20177;-71
2022/04/28 08:52:21;;;;;;;11.20;10.47;;;20.30;69.90;;;;;;5054224;28;20194;-70
2022/04/28 08:54:47;;;;;;;11.03;10.23;;;20.10;69.20;;;;;;5051710;28;20288;-71
2022/04/28 08:57:13;;;;;;;15.63;14.30;;;20.20;68.60;;;;;;5054379;28;20189;-71
2022/04/28 08:59:40;;;;;;;7.33;6.93;;;20.70;69.30;;;;;;5051190;28;20174;-71
2022/04/28 09:02:11;;;;;;;7.23;6.83;;;21.00;59.20;;;;;;5050920;28;20213;-71
2022/04/28 09:04:37;;;;;;;6.87;6.23;;;21.00;58.10;;;;;;5033270;28;20462;-71
2022/04/28 09:07:06;;;;;;;5.83;5.53;;;20.80;59.40;;;;;;5033033;28;20589;-71
2022/04/28 09:09:33;;;;;;;5.43;5.03;;;20.40;59.70;;;;;;5033100;28;20186;-71
2022/04/28 09:12:00;;;;;;;5.17;4.87;;;20.50;61.20;;;;;;5033105;28;20178;-70
2022/04/28 09:14:27;;;;;;;6.13;5.83;;;20.20;59.50;;;;;;5100446;22;20236;-73
2022/04/28 09:16:57;;;;;;;6.07;5.63;;;20.30;60.60;;;;;;5073302;28;20206;-75
2022/04/28 09:19:34;;;;;;;8.07;7.27;;;20.60;61.20;;;;;;5091367;28;20490;-74
2022/04/28 09:22:06;;;;;;;7.50;7.10;;;20.10;62.00;;;;;;5091155;28;20584;-74
2022/04/28 09:24:33;;;;;;;6.37;5.97;;;20.30;62.70;;;;;;5057848;28;20209;-74
2022/04/28 09:26:59;;;;;;;6.37;5.97;;;20.80;60.00;;;;;;5054027;28;20201;-74
2022/04/28 09:29:39;;;;;;;8.00;7.50;;;21.10;58.10;;;;;;5071736;28;20181;-75
2022/04/28 09:32:13;;;;;;;6.30;5.90;;;20.80;57.30;;;;;;5071730;28;20192;-75
2022/04/28 09:34:49;;;;;;;7.37;6.87;;;20.30;54.30;;;;;;5074016;28;20225;-75
2022/04/28 09:37:27;;;;;;;7.03;6.60;;;20.40;57.70;;;;;;5082478;28;20204;-75
2022/04/28 09:42:41;;;;;;;6.13;5.70;;;19.50;57.50;;;;;;5081409;28;20185;-74
2022/04/28 09:45:09;;;;;;;9.00;8.20;;;19.30;56.60;;;;;;5076391;28;20207;-74
2022/04/28 09:47:36;;;;;;;6.30;6.00;;;19.50;57.40;;;;;;5075906;28;20634;-74
2022/04/28 09:50:15;;;;;;;5.60;5.30;;;20.00;55.80;;;;;;5057759;28;20641;-74
2022/04/28 09:52:43;;;;;;;5.70;4.87;;;20.60;54.50;;;;;;5075138;28;20665;-74
2022/04/28 09:55:10;;;;;;;5.73;5.30;;;20.60;53.30;;;;;;5074819;28;20532;-74
2022/04/28 09:57:35;;;;;;;6.73;6.13;;;20.60;53.30;;;;;;5074300;28;20212;-74
2022/04/28 10:00:02;;;;;;;8.77;5.67;;;21.00;52.90;;;;;;5074763;28;20273;-74
2022/04/28 10:02:28;;;;;;;4.80;4.50;;;21.30;54.00;;;;;;5056577;28;20210;-74
2022/04/28 10:04:55;;;;;;;6.03;5.23;;;21.60;51.70;;;;;;5074683;28;20201;-74
2022/04/28 10:07:22;;;;;;;6.57;6.07;;;21.50;52.10;;;;;;5056174;28;20235;-74
2022/04/28 10:09:52;;;;;;;6.27;5.80;;;21.90;50.20;;;;;;5074708;28;20178;-74
2022/04/28 10:12:25;;;;;;;5.60;5.27;;;22.40;51.80;;;;;;5074734;28;20177;-76
2022/04/28 10:14:54;;;;;;;6.63;6.17;;;22.30;50.20;;;;;;5074268;28;20213;-76
2022/04/28 10:17:28;;;;;;;6.50;6.10;;;22.10;50.80;;;;;;5073934;28;20185;-74
2022/04/28 10:19:58;;;;;;;6.30;5.90;;;22.30;48.60;;;;;;5056463;28;20189;-74
2022/04/28 10:22:30;;;;;;;6.40;5.93;;;22.50;48.40;;;;;;5074076;28;20224;-74
2022/04/28 10:33:15;;;;;;;6.37;5.67;;;22.00;48.20;;;;;;5074138;28;20201;-75
2022/04/28 10:35:49;;;;;;;7.40;6.70;;;21.70;48.60;;;;;;5074015;28;20178;-74
2022/04/28 10:38:32;;;;;;;6.47;5.90;;;21.70;49.80;;;;;;5055884;28;20645;-75
2022/04/28 10:41:11;;;;;;;5.90;5.50;;;22.60;48.30;;;;;;5074088;28;20899;-75
2022/04/28 10:43:39;;;;;;;6.15;5.85;;;23.50;46.80;;;;;;5056019;28;20201;-74
2022/04/28 10:46:08;;;;;;;6.00;5.63;;;23.70;44.50;;;;;;5057823;28;20174;-75
2022/04/28 10:48:38;;;;;;;6.13;5.68;;;23.70;44.30;;;;;;5058582;28;20177;-74
2022/04/28 10:51:29;;;;;;;5.68;5.38;;;23.60;45.30;;;;;;5073982;28;20182;-74
2022/04/28 10:54:09;;;;;;;4.85;4.47;;;23.80;44.30;;;;;;5055846;28;20206;-75
2022/04/28 10:56:44;;;;;;;6.45;6.13;;;23.40;45.20;;;;;;5073780;28;20203;-75
2022/04/28 10:59:34;;;;;;;6.57;6.18;;;23.00;45.90;;;;;;5073468;28;20190;-76
2022/04/28 11:02:15;;;;;;;6.55;6.05;;;23.00;45.90;;;;;;5055828;28;20248;-75
2022/04/28 11:04:49;;;;;;;5.87;5.57;;;22.70;45.20;;;;;;5055674;28;20228;-75
2022/04/28 11:07:21;;;;;;;7.28;6.78;;;23.00;45.80;;;;;;5073095;28;20206;-75
2022/04/28 11:09:57;;;;;;;5.63;5.32;;;23.20;45.10;;;;;;5073447;28;20185;-75
2022/04/28 11:12:25;;;;;;;6.57;6.07;;;23.40;43.90;;;;;;5055638;28;20235;-75
2022/04/28 11:15:00;;;;;;;6.50;5.90;;;22.90;44.10;;;;;;5055627;28;20240;-76
2022/04/28 11:17:30;;;;;;;6.88;6.47;;;22.80;44.60;;;;;;5072829;28;20185;-75
2022/04/28 11:20:04;;;;;;;5.07;4.68;;;23.10;44.30;;;;;;5073369;28;20239;-75
2022/04/28 11:22:30;;;;;;;4.25;4.05;;;23.70;42.80;;;;;;5075469;28;20232;-74
2022/04/28 11:24:56;;;;;;;4.90;4.18;;;23.70;42.50;;;;;;5056552;28;20229;-75
2022/04/28 11:27:27;;;;;;;4.88;4.68;;;23.40;42.90;;;;;;5073027;28;20239;-75
2022/04/28 11:29:59;;;;;;;4.68;4.38;;;23.70;44.30;;;;;;5073700;28;20227;-76
2022/04/28 11:32:25;;;;;;;5.32;5.03;;;24.70;41.50;;;;;;5072863;28;20216;-76
2022/04/28 11:34:52;;;;;;;5.10;4.78;;;25.10;40.60;;;;;;5072948;28;20201;-74
2022/04/28 11:37:24;;;;;;;5.80;5.05;;;25.60;39.40;;;;;;5072611;28;20186;-74
2022/04/28 11:39:51;;;;;;;4.55;4.20;;;26.10;39.50;;;;;;5072770;28;20213;-73
2022/04/28 11:42:18;;;;;;;4.70;4.40;;;28.10;36.90;;;;;;5072965;28;20851;-74
2022/04/28 11:44:52;;;;;;;5.03;4.63;;;28.40;36.30;;;;;;5055704;28;20206;-76
2022/04/28 11:47:22;;;;;;;4.43;4.20;;;27.20;37.80;;;;;;5054959;28;20211;-75
2022/04/28 11:49:56;;;;;;;6.78;3.85;;;26.50;37.70;;;;;;5054768;28;20189;-76
2022/04/28 11:52:23;;;;;;;3.70;3.45;;;26.10;38.40;;;;;;5072602;28;20182;-74
2022/04/28 11:55:04;;;;;;;4.80;3.85;;;25.20;38.10;;;;;;5054509;28;20693;-76
2022/04/28 11:57:31;;;;;;;4.28;4.07;;;25.90;38.20;;;;;;5072005;28;20565;-75
2022/04/28 11:59:58;;;;;;;4.38;4.15;;;24.70;38.70;;;;;;5071958;28;20178;-74
2022/04/28 12:02:30;;;;;;;4.22;3.92;;;24.90;38.50;;;;;;5053991;28;20224;-74
2022/04/28 12:04:58;;;;;;;4.78;4.47;;;25.60;37.90;;;;;;5054396;28;20225;-74
2022/04/28 12:07:36;;;;;;;4.85;4.55;;;26.00;37.80;;;;;;5071946;28;20242;-75
2022/04/28 12:15:33;;;;;;;4.88;4.47;;;25.00;39.20;;;;;;5072025;28;20182;-74
2022/04/28 12:20:55;;;;;;;5.13;4.82;;;26.00;36.60;;;;;;5072094;28;20205;-74
2022/04/28 12:23:29;;;;;;;4.47;4.20;;;24.90;38.30;;;;;;5071765;28;20200;-75
2022/04/28 12:26:06;;;;;;;4.70;4.43;;;25.40;38.80;;;;;;5071904;28;20678;-75
2022/04/28 12:28:40;;;;;;;5.13;4.82;;;26.00;37.40;;;;;;5073079;28;20185;-76
2022/04/28 12:31:08;;;;;;;4.20;4.00;;;24.90;38.60;;;;;;5072230;28;20243;-74
2022/04/28 12:33:37;;;;;;;5.50;5.03;;;25.70;37.80;;;;;;5053821;28;20220;-74
2022/04/28 12:36:05;;;;;;;5.85;5.35;;;25.70;37.50;;;;;;5071551;28;20703;-75
2022/04/28 12:38:35;;;;;;;4.90;4.60;;;25.30;37.80;;;;;;5071259;28;20664;-74
2022/04/28 12:41:18;;;;;;;5.00;4.70;;;25.80;37.90;;;;;;5053795;28;20205;-73
2022/04/28 12:43:50;;;;;;;5.10;4.80;;;26.50;36.90;;;;;;5071445;28;20213;-75
2022/04/28 12:46:33;;;;;;;5.32;4.90;;;26.20;38.80;;;;;;5053710;28;20272;-74
2022/04/28 12:49:04;;;;;;;5.55;5.15;;;26.60;37.40;;;;;;5053399;28;20195;-75
2022/04/28 12:51:39;;;;;;;5.45;5.13;;;26.10;37.10;;;;;;5053776;28;20177;-74
2022/04/28 12:54:08;;;;;;;5.88;5.38;;;26.40;37.90;;;;;;5071168;28;20216;-75
2022/04/28 12:56:33;;;;;;;4.95;4.68;;;27.10;36.20;;;;;;5053170;28;20188;-75
2022/04/28 12:59:04;;;;;;;4.22;4.03;;;27.70;36.80;;;;;;5070801;28;20272;-75
2022/04/28 13:01:31;;;;;;;4.10;3.80;;;28.20;35.20;;;;;;5071092;28;20255;-75
2022/04/28 13:04:09;;;;;;;4.63;4.35;;;28.30;34.70;;;;;;5053295;28;20197;-75
2022/04/28 13:06:38;;;;;;;4.00;3.63;;;28.50;34.30;;;;;;5073744;28;20177;-75
2022/04/28 13:09:07;;;;;;;5.00;4.60;;;28.50;35.20;;;;;;5071480;28;20189;-75
2022/04/28 13:11:36;;;;;;;5.25;4.65;;;28.00;34.00;;;;;;5052953;28;20201;-75
2022/04/28 13:14:04;;;;;;;5.15;4.60;;;27.20;33.90;;;;;;5071042;28;20213;-75
2022/04/28 13:16:30;;;;;;;4.90;4.60;;;27.20;34.90;;;;;;5054105;28;20182;-75
2022/04/28 13:18:56;;;;;;;5.00;4.45;;;27.80;34.40;;;;;;5071322;28;20200;-75
2022/04/28 13:21:23;;;;;;;5.68;5.10;;;28.20;34.90;;;;;;5071525;28;20210;-75
2022/04/28 13:23:51;;;;;;;4.97;4.65;;;27.50;35.10;;;;;;5053697;28;20225;-75
2022/04/28 13:26:19;;;;;;;4.90;4.60;;;27.00;36.20;;;;;;5071607;28;20181;-75
2022/04/28 13:28:46;;;;;;;4.93;4.65;;;26.90;36.80;;;;;;5071307;28;20184;-75
2022/04/28 13:31:12;;;;;;;4.93;4.63;;;27.90;35.50;;;;;;5054005;28;20578;-75
2022/04/28 13:33:39;;;;;;;4.90;4.63;;;28.10;35.30;;;;;;5054510;28;20509;-75
2022/04/28 13:36:05;;;;;;;4.45;4.15;;;27.90;34.70;;;;;;5053370;28;20228;-74
2022/04/28 13:38:32;;;;;;;4.85;4.43;;;28.20;35.80;;;;;;5070506;28;20208;-75
2022/04/28 13:40:58;;;;;;;5.15;4.80;;;28.90;35.60;;;;;;5052956;28;20212;-75
2022/04/28 13:43:24;;;;;;;4.80;4.50;;;27.40;35.90;;;;;;5052907;28;20278;-75
2022/04/28 13:45:50;;;;;;;6.35;5.60;;;27.00;37.50;;;;;;5070747;28;20549;-75
2022/04/28 13:48:16;;;;;;;6.68;6.28;;;26.50;36.90;;;;;;5070392;28;20212;-75
2022/04/28 13:50:46;;;;;;;6.22;5.72;;;25.70;38.40;;;;;;5071039;28;20188;-75
2022/04/28 13:53:13;;;;;;;5.78;5.28;;;26.90;38.50;;;;;;5071055;28;20784;-75
2022/04/28 13:55:40;;;;;;;12.82;4.72;;;28.30;37.10;;;;;;5053013;28;20185;-74
2022/04/28 13:58:07;;;;;;;10.20;4.78;;;28.00;34.80;;;;;;5070619;28;20181;-75
2022/04/28 14:00:33;;;;;;;5.43;5.13;;;26.80;36.40;;;;;;5070729;28;20178;-75
2022/04/28 14:02:59;;;;;;;5.65;5.22;;;26.90;36.80;;;;;;5070736;28;20331;-75
2022/04/28 14:05:28;;;;;;;6.30;4.45;;;27.40;36.50;;;;;;5071240;28;20174;-75
2022/04/28 14:07:54;;;;;;;5.05;4.75;;;28.00;36.10;;;;;;5053310;28;20599;-75
2022/04/28 14:10:20;;;;;;;4.65;4.35;;;28.70;33.30;;;;;;5070215;28;20180;-75
2022/04/28 14:12:46;;;;;;;4.85;4.45;;;28.90;34.60;;;;;;5068673;28;20185;-75
2022/04/28 14:15:12;;;;;;;5.60;4.60;;;28.30;34.60;;;;;;5065648;28;20193;-74
2022/04/28 14:17:40;;;;;;;4.60;4.30;;;28.10;34.30;;;;;;5071518;28;20185;-75
2022/04/28 14:20:11;;;;;;;4.50;4.20;;;29.00;34.50;;;;;;5071803;28;20178;-75
2022/04/28 14:22:38;;;;;;;5.40;4.95;;;28.80;34.00;;;;;;5070682;28;20220;-76
2022/04/28 14:25:04;;;;;;;4.90;4.70;;;27.80;34.90;;;;;;5072844;28;20194;-75
2022/04/28 14:27:30;;;;;;;4.72;4.32;;;27.90;34.80;;;;;;5055869;28;20605;-74
2022/04/28 14:29:56;;;;;;;4.65;4.38;;;27.30;36.10;;;;;;5074284;28;20196;-74
2022/04/28 14:32:22;;;;;;;4.95;4.65;;;27.40;35.50;;;;;;5073807;28;20235;-76
2022/04/28 14:34:48;;;;;;;5.00;4.68;;;27.60;35.20;;;;;;5055800;28;20198;-76
2022/04/28 14:37:14;;;;;;;4.60;4.40;;;27.70;35.40;;;;;;5073676;28;20560;-76
2022/04/28 14:39:40;;;;;;;4.93;4.53;;;28.40;34.50;;;;;;5073648;28;20173;-76
2022/04/28 14:42:07;;;;;;;4.82;4.43;;;29.40;33.80;;;;;;5073564;28;20283;-76
2022/04/28 14:44:34;;;;;;;4.68;4.28;;;29.30;33.00;;;;;;5055858;28;20332;-76
2022/04/28 14:47:00;;;;;;;4.25;4.05;;;29.70;32.50;;;;;;5073633;28;20181;-76
2022/04/28 14:52:21;;;;;;;5.13;4.82;;;30.10;33.00;;;;;;5080590;28;20212;-76
2022/04/28 14:54:54;;;;;;;6.85;4.40;;;29.80;32.50;;;;;;5073867;28;20749;-76
2022/04/28 14:57:27;;;;;;;4.13;3.90;;;30.40;30.90;;;;;;5073218;28;20189;-76
2022/04/28 14:59:54;;;;;;;3.78;3.55;;;30.50;30.80;;;;;;5073398;28;20192;-74
2022/04/28 15:02:19;;;;;;;4.70;4.30;;;29.90;31.10;;;;;;5073478;28;20213;-75
2022/04/28 15:04:46;;;;;;;4.20;3.97;;;28.90;32.30;;;;;;5073622;28;20189;-75
2022/04/28 15:07:16;;;;;;;4.35;4.10;;;28.60;33.50;;;;;;5072896;28;20182;-75
2022/04/28 15:09:43;;;;;;;5.70;4.60;;;28.20;34.50;;;;;;5073286;28;20189;-75
2022/04/28 15:12:10;;;;;;;3.97;3.78;;;28.20;33.80;;;;;;5055338;28;20201;-75
2022/04/28 15:14:37;;;;;;;4.93;4.45;;;28.40;34.30;;;;;;5081253;22;20230;-74
2022/04/28 15:17:04;;;;;;;4.72;3.95;;;28.40;33.10;;;;;;5052612;28;20177;-73
2022/04/28 15:19:31;;;;;;;4.57;4.30;;;28.60;32.70;;;;;;5034780;28;20557;-73
2022/04/28 15:21:57;;;;;;;5.00;4.15;;;29.30;32.30;;;;;;5052968;28;20214;-73
2022/04/28 15:24:23;;;;;;;4.15;3.95;;;29.30;33.20;;;;;;5063739;28;20201;-73
2022/04/28 15:26:49;;;;;;;4.50;4.10;;;29.70;31.70;;;;;;5072660;28;20322;-74
2022/04/28 15:29:16;;;;;;;4.55;4.30;;;29.00;31.70;;;;;;5072649;28;20637;-73
2022/04/28 15:31:42;;;;;;;4.68;4.30;;;27.50;32.90;;;;;;5054871;28;20269;-73
2022/04/28 15:34:09;;;;;;;5.47;5.18;;;27.60;33.20;;;;;;5054770;28;20209;-72
2022/04/28 15:36:36;;;;;;;4.35;4.15;;;27.70;34.00;;;;;;5054768;28;20177;-73
2022/04/28 15:39:03;;;;;;;5.85;5.45;;;27.20;34.70;;;;;;5072193;28;20474;-75
2022/04/28 15:41:34;;;;;;;7.90;5.07;;;26.70;35.40;;;;;;5072974;28;20232;-72
2022/04/28 15:44:03;;;;;;;6.50;5.93;;;26.90;35.00;;;;;;5054960;28;20200;-74
2022/04/28 15:46:30;;;;;;;5.57;5.20;;;26.80;34.50;;;;;;5072700;28;20282;-73
2022/04/28 15:48:57;;;;;;;5.00;4.60;;;26.80;35.10;;;;;;5054160;28;20193;-73
2022/04/28 15:51:23;;;;;;;4.88;4.47;;;27.50;34.30;;;;;;5054717;28;20184;-72
2022/04/28 15:53:48;;;;;;;4.05;3.80;;;27.60;32.80;;;;;;5069630;28;20284;-73
2022/04/28 15:56:14;;;;;;;4.47;4.18;;;27.90;33.60;;;;;;5070910;28;20661;-74
2022/04/28 15:58:40;;;;;;;4.40;4.13;;;28.60;32.80;;;;;;5072012;28;20797;-74
2022/04/28 16:01:08;;;;;;;4.57;4.32;;;28.90;32.60;;;;;;5071771;28;20209;-73
2022/04/28 16:03:34;;;;;;;4.22;3.92;;;29.10;31.60;;;;;;5054340;28;20616;-73
2022/04/28 16:06:00;;;;;;;4.43;4.05;;;28.80;32.50;;;;;;5053303;28;20200;-72
2022/04/28 16:08:26;;;;;;;4.72;4.15;;;28.70;32.70;;;;;;5071065;28;20669;-74
2022/04/28 16:10:52;;;;;;;5.05;4.75;;;28.80;32.00;;;;;;5052706;28;20315;-73
2022/04/28 16:13:18;;;;;;;4.32;3.97;;;28.40;32.80;;;;;;5072734;28;20673;-75
2022/04/28 16:15:44;;;;;;;5.18;4.88;;;27.50;32.90;;;;;;5056325;28;20651;-74
2022/04/28 16:18:09;;;;;;;4.10;3.80;;;26.60;34.50;;;;;;5070992;28;20210;-74